createdAt,value
2023-08-22T00:00:42.450Z,3.95
2023-08-22T00:03:10.156Z,3.90
2023-08-22T00:05:37.597Z,4.20
2023-08-22T00:08:08.159Z,4.00
2023-08-22T00:10:36.154Z,3.88
2023-08-22T00:13:04.502Z,3.90
2023-08-22T00:15:32.870Z,3.70
2023-08-22T00:18:00.191Z,4.03
2023-08-22T00:20:27.387Z,4.00
2023-08-22T00:22:54.531Z,4.03
2023-08-22T00:25:21.781Z,4.10
2023-08-22T00:27:49.321Z,4.15
2023-08-22T00:30:16.584Z,4.15
2023-08-22T00:32:43.791Z,4.00
2023-08-22T00:35:12.653Z,4.00
2023-08-22T00:37:40.189Z,3.83
2023-08-22T00:40:08.477Z,3.90
2023-08-22T00:42:35.671Z,3.97
2023-08-22T00:45:03.023Z,3.90
2023-08-22T00:47:30.266Z,4.28
2023-08-22T00:49:57.464Z,4.18
2023-08-22T00:52:24.683Z,3.92
2023-08-22T00:54:52.239Z,4.30
2023-08-22T00:57:19.445Z,3.80
2023-08-22T00:59:46.681Z,4.32
2023-08-22T01:02:16.214Z,3.75
2023-08-22T01:04:44.247Z,3.95
2023-08-22T01:07:11.436Z,3.70
2023-08-22T01:09:38.601Z,4.10
2023-08-22T01:12:14.008Z,4.32
2023-08-22T01:14:44.918Z,3.97
2023-08-22T01:17:14.500Z,4.25
2023-08-22T01:19:41.857Z,3.92
2023-08-22T01:22:08.981Z,4.10
2023-08-22T01:24:36.153Z,4.57
2023-08-22T01:27:03.657Z,4.55
2023-08-22T01:29:39.120Z,4.78
2023-08-22T01:32:26.428Z,4.25
2023-08-22T01:34:55.723Z,4.10
2023-08-22T01:37:24.888Z,4.30
2023-08-22T01:39:56.906Z,4.05
2023-08-22T01:42:27.379Z,4.40
2023-08-22T01:44:54.670Z,4.22
2023-08-22T01:47:23.370Z,4.60
2023-08-22T01:49:50.647Z,4.28
2023-08-22T01:52:17.922Z,4.78
2023-08-22T01:54:45.180Z,4.25
2023-08-22T01:57:12.244Z,4.53
2023-08-22T01:59:39.512Z,4.30
2023-08-22T02:02:06.709Z,4.35
2023-08-22T02:04:34.432Z,4.53
2023-08-22T02:07:01.833Z,4.30
2023-08-22T02:09:29.225Z,4.28
2023-08-22T02:11:56.623Z,5.10
2023-08-22T02:14:24.075Z,4.43
2023-08-22T02:16:51.880Z,4.75
2023-08-22T02:19:19.418Z,4.47
2023-08-22T02:21:46.754Z,4.72
2023-08-22T02:24:15.742Z,4.17
2023-08-22T02:26:44.565Z,4.35
2023-08-22T02:29:12.224Z,4.47
2023-08-22T02:31:39.885Z,4.47
2023-08-22T02:34:07.224Z,5.00
2023-08-22T02:36:34.538Z,4.50
2023-08-22T02:39:01.685Z,5.80
2023-08-22T02:41:28.876Z,4.82
2023-08-22T02:43:57.984Z,4.45
2023-08-22T02:46:25.155Z,4.72
2023-08-22T02:48:52.268Z,4.40
2023-08-22T02:51:19.474Z,4.82
2023-08-22T02:53:46.651Z,4.40
2023-08-22T02:56:13.872Z,4.82
2023-08-22T02:58:41.085Z,4.20
2023-08-22T03:01:09.278Z,4.33
2023-08-22T03:03:36.535Z,4.35
2023-08-22T03:06:04.260Z,4.45
2023-08-22T03:08:31.488Z,4.93
2023-08-22T03:11:02.409Z,4.30
2023-08-22T03:13:29.990Z,4.33
2023-08-22T03:15:59.106Z,4.80
2023-08-22T03:18:29.436Z,4.50
2023-08-22T03:20:57.744Z,4.70
2023-08-22T03:23:25.885Z,4.80
2023-08-22T03:25:56.795Z,4.43
2023-08-22T03:28:24.626Z,4.90
2023-08-22T03:31:04.310Z,4.80
2023-08-22T03:33:33.834Z,4.85
2023-08-22T03:36:03.996Z,4.65
2023-08-22T03:38:31.332Z,4.47
2023-08-22T03:40:58.691Z,4.25
2023-08-22T03:43:25.953Z,4.60
2023-08-22T03:45:53.294Z,4.90
2023-08-22T03:48:20.493Z,4.45
2023-08-22T03:50:49.028Z,4.43
2023-08-22T03:53:16.773Z,4.38
2023-08-22T03:55:45.174Z,4.78
2023-08-22T03:58:12.720Z,4.57
2023-08-22T04:00:39.985Z,4.50
2023-08-22T04:03:07.677Z,4.50
2023-08-22T04:05:34.962Z,4.55
2023-08-22T04:08:02.977Z,4.95
2023-08-22T04:10:30.182Z,4.60
2023-08-22T04:12:57.478Z,4.90
2023-08-22T04:15:24.661Z,4.60
2023-08-22T04:17:51.950Z,4.82
2023-08-22T04:20:19.224Z,4.60
2023-08-22T04:22:46.504Z,4.50
2023-08-22T04:25:14.167Z,4.70
2023-08-22T04:27:43.320Z,4.73
2023-08-22T04:30:14.430Z,4.78
2023-08-22T04:32:41.861Z,5.13
2023-08-22T04:35:09.443Z,4.88
2023-08-22T04:37:39.629Z,4.78
2023-08-22T04:40:07.487Z,5.23
2023-08-22T04:42:42.174Z,4.82
2023-08-22T04:45:11.335Z,5.22
2023-08-22T04:47:38.869Z,4.95
2023-08-22T04:50:07.390Z,4.90
2023-08-22T04:52:35.068Z,4.90
2023-08-22T04:55:03.291Z,5.50
2023-08-22T04:57:30.570Z,5.32
2023-08-22T04:59:58.680Z,5.25
2023-08-22T05:02:27.795Z,5.07
2023-08-22T05:04:55.104Z,5.10
2023-08-22T05:07:22.671Z,4.80
2023-08-22T05:09:49.838Z,5.55
2023-08-22T05:12:17.148Z,5.28
2023-08-22T05:14:44.461Z,5.22
2023-08-22T05:17:12.078Z,5.40
2023-08-22T05:19:41.340Z,5.15
2023-08-22T05:22:09.907Z,5.07
2023-08-22T05:24:38.338Z,5.78
2023-08-22T05:27:05.835Z,5.38
2023-08-22T05:29:34.547Z,5.47
2023-08-22T05:32:01.928Z,5.38
2023-08-22T05:34:29.233Z,5.50
2023-08-22T05:36:56.513Z,5.65
2023-08-22T05:39:24.036Z,5.45
2023-08-22T05:41:51.612Z,5.23
2023-08-22T05:44:22.104Z,5.32
2023-08-22T05:46:55.626Z,5.32
2023-08-22T05:49:25.890Z,5.10
2023-08-22T05:52:01.366Z,4.97
2023-08-22T05:54:28.652Z,5.33
2023-08-22T05:56:55.998Z,5.03
2023-08-22T05:59:26.357Z,5.45
2023-08-22T06:01:55.084Z,5.47
2023-08-22T06:04:24.718Z,4.93
2023-08-22T06:06:52.359Z,5.10
2023-08-22T06:09:19.670Z,5.95
2023-08-22T06:11:46.868Z,5.00
2023-08-22T06:14:14.225Z,5.65
2023-08-22T06:16:43.499Z,5.90
2023-08-22T06:19:10.946Z,5.13
2023-08-22T06:21:39.852Z,4.88
2023-08-22T06:24:07.360Z,5.55
2023-08-22T06:26:36.067Z,5.07
2023-08-22T06:29:03.900Z,5.88
2023-08-22T06:31:32.390Z,4.97
2023-08-22T06:33:59.789Z,5.25
2023-08-22T06:36:27.781Z,4.85
2023-08-22T06:38:55.050Z,4.97
2023-08-22T06:41:22.396Z,4.88
2023-08-22T06:43:49.676Z,5.10
2023-08-22T06:46:18.465Z,5.07
2023-08-22T06:48:45.784Z,4.70
2023-08-22T06:51:13.064Z,4.88
2023-08-22T06:53:40.537Z,5.20
2023-08-22T06:56:07.835Z,5.07
2023-08-22T06:58:35.047Z,4.53
2023-08-22T07:01:06.016Z,4.88
2023-08-22T07:03:33.387Z,5.05
2023-08-22T07:06:00.843Z,4.88
2023-08-22T07:08:28.592Z,4.97
2023-08-22T07:11:05.104Z,4.32
2023-08-22T07:13:32.608Z,5.35
2023-08-22T07:15:59.925Z,4.18
2023-08-22T07:18:29.198Z,4.75
2023-08-22T07:20:56.486Z,5.00
2023-08-22T07:23:24.160Z,4.90
2023-08-22T07:25:51.717Z,4.55
2023-08-22T07:28:19.715Z,4.07
2023-08-22T07:30:50.083Z,4.05
2023-08-22T07:33:17.442Z,3.97
2023-08-22T07:35:45.501Z,5.07
2023-08-22T07:38:13.072Z,4.90
2023-08-22T07:40:43.059Z,4.40
2023-08-22T07:43:10.366Z,4.10
2023-08-22T07:45:37.820Z,4.70
2023-08-22T07:48:05.318Z,4.65
2023-08-22T07:50:32.590Z,4.10
2023-08-22T07:52:59.858Z,4.35
2023-08-22T07:55:27.649Z,4.13
2023-08-22T07:57:55.421Z,3.97
2023-08-22T08:00:23.622Z,4.05
2023-08-22T08:02:51.124Z,4.38
2023-08-22T08:05:18.635Z,4.13
2023-08-22T08:07:46.630Z,3.97
2023-08-22T08:10:13.838Z,4.40
2023-08-22T08:12:41.103Z,4.18
2023-08-22T08:15:08.922Z,4.40
2023-08-22T08:17:36.454Z,4.00
2023-08-22T08:20:04.791Z,4.18
2023-08-22T08:22:32.458Z,3.93
2023-08-22T08:24:59.790Z,4.00
2023-08-22T08:27:27.194Z,3.72
2023-08-22T08:29:54.561Z,3.72
2023-08-22T08:32:22.039Z,4.03
2023-08-22T08:34:49.383Z,3.63
2023-08-22T08:37:17.456Z,3.80
2023-08-22T08:39:44.578Z,4.05
2023-08-22T08:42:15.552Z,3.80
2023-08-22T08:44:43.136Z,3.60
2023-08-22T08:47:11.182Z,3.70
2023-08-22T08:49:38.720Z,3.70
2023-08-22T08:52:07.172Z,3.90
2023-08-22T08:54:34.469Z,4.10
2023-08-22T08:57:02.291Z,3.88
2023-08-22T08:59:30.561Z,3.20
2023-08-22T09:01:58.039Z,3.55
2023-08-22T09:04:25.363Z,3.63
2023-08-22T09:06:53.541Z,3.67
2023-08-22T09:09:22.326Z,4.15
2023-08-22T09:11:51.806Z,3.97
2023-08-22T09:14:20.181Z,4.07
2023-08-22T09:16:47.832Z,4.10
2023-08-22T09:19:15.019Z,4.13
2023-08-22T09:21:56.854Z,3.75
2023-08-22T09:24:25.074Z,3.57
2023-08-22T09:26:52.433Z,9.38
2023-08-22T09:29:30.183Z,4.22
2023-08-22T09:32:01.336Z,4.32
2023-08-22T09:34:29.282Z,3.78
2023-08-22T09:36:56.610Z,3.53
2023-08-22T09:39:26.151Z,3.80
2023-08-22T09:41:57.406Z,3.63
2023-08-22T09:44:27.640Z,3.90
2023-08-22T09:46:56.460Z,3.50
2023-08-22T09:49:24.158Z,3.50
2023-08-22T09:51:55.075Z,3.72
2023-08-22T09:54:23.504Z,4.00
2023-08-22T09:56:51.640Z,3.90
2023-08-22T09:59:20.170Z,3.70
2023-08-22T10:01:49.025Z,3.80
2023-08-22T10:04:18.353Z,3.80
2023-08-22T10:06:47.781Z,3.60
2023-08-22T10:09:17.576Z,3.97
2023-08-22T10:11:51.324Z,4.15
2023-08-22T10:14:30.744Z,4.10
2023-08-22T10:16:59.280Z,4.20
2023-08-22T10:19:27.677Z,4.47
2023-08-22T10:21:55.224Z,4.13
2023-08-22T10:24:23.038Z,4.90
2023-08-22T10:27:25.628Z,4.50
2023-08-22T10:30:11.355Z,4.60
2023-08-22T10:32:39.186Z,4.75
2023-08-22T10:35:15.408Z,4.78
2023-08-22T10:37:47.497Z,5.25
2023-08-22T10:40:22.131Z,4.80
2023-08-22T10:42:56.400Z,8.02
2023-08-22T10:45:23.843Z,5.50
2023-08-22T10:48:05.912Z,5.90
2023-08-22T10:50:33.444Z,6.68
2023-08-22T10:53:13.023Z,6.83
2023-08-22T10:55:40.296Z,6.30
2023-08-22T10:58:07.685Z,6.20
2023-08-22T11:00:35.488Z,5.30
2023-08-22T11:03:02.903Z,5.50
2023-08-22T11:05:31.489Z,5.43
2023-08-22T11:07:59.111Z,5.40
2023-08-22T11:10:26.840Z,5.70
2023-08-22T11:12:57.480Z,5.18
2023-08-22T11:15:25.074Z,4.75
2023-08-22T11:17:52.572Z,5.80
2023-08-22T11:20:25.271Z,5.15
2023-08-22T11:22:54.905Z,5.95
2023-08-22T11:25:27.798Z,6.55
2023-08-22T11:27:55.421Z,6.82
2023-08-22T11:30:22.997Z,7.43
2023-08-22T11:32:50.968Z,7.70
2023-08-22T11:35:18.479Z,7.15
2023-08-22T11:37:46.020Z,7.38
2023-08-22T11:40:18.206Z,6.28
2023-08-22T11:42:48.808Z,6.80
2023-08-22T11:45:23.205Z,6.50
2023-08-22T11:47:52.402Z,6.68
2023-08-22T11:50:24.303Z,6.70
2023-08-22T11:52:54.510Z,5.50
2023-08-22T11:55:28.846Z,6.33
2023-08-22T11:58:00.641Z,6.03
2023-08-22T12:00:28.759Z,5.90
2023-08-22T12:02:57.260Z,5.90
2023-08-22T12:05:33.287Z,6.25
2023-08-22T12:08:01.427Z,5.50
2023-08-22T12:10:41.649Z,5.65
2023-08-22T12:13:09.683Z,5.20
2023-08-22T12:15:37.496Z,5.05
2023-08-22T12:18:08.191Z,5.20
2023-08-22T12:20:36.040Z,5.10
2023-08-22T12:23:03.498Z,5.15
2023-08-22T12:25:30.808Z,5.40
2023-08-22T12:27:58.120Z,4.65
2023-08-22T12:30:25.313Z,4.88
2023-08-22T12:32:52.919Z,4.90
2023-08-22T12:35:20.706Z,4.90
2023-08-22T12:37:48.572Z,5.40
2023-08-22T12:40:16.757Z,5.43
2023-08-22T12:42:44.161Z,4.85
2023-08-22T12:45:11.673Z,4.97
2023-08-22T12:47:39.487Z,4.90
2023-08-22T12:50:07.644Z,5.25
2023-08-22T12:52:34.926Z,4.47
2023-08-22T12:55:02.734Z,5.30
2023-08-22T12:57:30.074Z,5.60
2023-08-22T12:59:57.183Z,4.72
2023-08-22T13:02:28.204Z,5.15
2023-08-22T13:04:55.529Z,5.22
2023-08-22T13:07:22.828Z,5.47
2023-08-22T13:09:50.047Z,5.00
2023-08-22T13:12:17.342Z,5.13
2023-08-22T13:14:44.695Z,6.28
2023-08-22T13:17:12.671Z,6.88
2023-08-22T13:19:40.318Z,7.10
2023-08-22T13:22:07.651Z,6.93
2023-08-22T13:24:34.972Z,6.93
2023-08-22T13:27:03.380Z,7.07
2023-08-22T13:29:31.377Z,6.30
2023-08-22T13:31:58.999Z,6.90
2023-08-22T13:34:26.297Z,6.70
2023-08-22T13:36:53.829Z,5.90
2023-08-22T13:39:21.001Z,6.05
2023-08-22T13:41:48.499Z,5.65
2023-08-22T13:44:16.109Z,6.28
2023-08-22T13:46:45.081Z,6.37
2023-08-22T13:49:12.433Z,5.85
2023-08-22T13:51:39.703Z,5.35
2023-08-22T13:54:07.029Z,5.60
2023-08-22T13:56:34.547Z,5.45
2023-08-22T13:59:01.983Z,4.67
2023-08-22T14:01:29.400Z,5.57
2023-08-22T14:03:56.912Z,6.32
2023-08-22T14:06:24.085Z,5.03
2023-08-22T14:08:51.188Z,4.88
2023-08-22T14:11:18.465Z,4.97
2023-08-22T14:13:46.179Z,4.72
2023-08-22T14:16:13.713Z,4.95
2023-08-22T14:18:40.853Z,5.05
2023-08-22T14:21:08.081Z,4.90
2023-08-22T14:23:35.364Z,5.13
2023-08-22T14:26:02.759Z,4.90
2023-08-22T14:28:30.036Z,5.07
2023-08-22T14:31:03.287Z,5.03
2023-08-22T14:33:30.564Z,5.35
2023-08-22T14:35:58.085Z,5.20
2023-08-22T14:38:25.364Z,5.72
2023-08-22T14:40:56.365Z,5.20
2023-08-22T14:43:26.848Z,5.20
2023-08-22T14:45:56.074Z,5.18
2023-08-22T14:48:26.478Z,4.90
2023-08-22T14:50:55.567Z,4.80
2023-08-22T14:53:24.544Z,5.50
2023-08-22T14:56:02.481Z,5.20
2023-08-22T14:58:39.971Z,5.22
2023-08-22T15:01:07.462Z,5.10
2023-08-22T15:03:34.629Z,5.80
2023-08-22T15:06:02.314Z,5.60
2023-08-22T15:08:32.378Z,5.53
2023-08-22T15:10:59.629Z,5.38
2023-08-22T15:13:27.652Z,6.10
2023-08-22T15:15:56.090Z,5.40
2023-08-22T15:18:23.892Z,5.30
2023-08-22T15:20:51.731Z,5.25
2023-08-22T15:23:19.396Z,4.90
2023-08-22T15:25:51.051Z,4.70
2023-08-22T15:28:19.076Z,4.47
2023-08-22T15:30:46.746Z,4.60
2023-08-22T15:33:14.120Z,4.80
2023-08-22T15:35:46.753Z,4.65
2023-08-22T15:38:15.256Z,4.90
2023-08-22T15:40:48.839Z,4.18
2023-08-22T15:43:17.084Z,4.60
2023-08-22T15:45:45.032Z,4.40
2023-08-22T15:48:12.521Z,4.75
2023-08-22T15:50:39.785Z,4.70
2023-08-22T15:53:07.049Z,4.40
2023-08-22T15:55:34.534Z,5.00
2023-08-22T15:58:02.295Z,5.03
2023-08-22T16:00:29.719Z,4.75
2023-08-22T16:02:59.294Z,4.50
2023-08-22T16:05:27.032Z,4.72
2023-08-22T16:07:54.294Z,4.60
2023-08-22T16:10:21.419Z,4.57
2023-08-22T16:12:48.755Z,4.78
2023-08-22T16:15:16.270Z,4.53
2023-08-22T16:17:44.614Z,4.68
2023-08-22T16:20:12.497Z,4.82
2023-08-22T16:22:39.761Z,4.70
2023-08-22T16:25:07.072Z,4.78
2023-08-22T16:27:37.392Z,5.03
2023-08-22T16:30:06.730Z,4.60
2023-08-22T16:32:33.903Z,4.40
2023-08-22T16:35:01.523Z,4.97
2023-08-22T16:37:28.930Z,4.57
2023-08-22T16:39:56.122Z,4.70
2023-08-22T16:42:23.442Z,4.90
2023-08-22T16:44:50.736Z,5.35
2023-08-22T16:47:18.058Z,4.72
2023-08-22T16:49:45.625Z,4.88
2023-08-22T16:52:12.896Z,4.97
2023-08-22T16:54:40.113Z,4.80
2023-08-22T16:57:07.566Z,5.00
2023-08-22T16:59:34.813Z,4.80
2023-08-22T17:02:03.040Z,4.97
2023-08-22T17:04:30.341Z,5.17
2023-08-22T17:06:57.945Z,6.82
2023-08-22T17:09:25.334Z,6.30
2023-08-22T17:11:52.663Z,6.10
2023-08-22T17:14:20.064Z,5.28
2023-08-22T17:16:47.380Z,5.40
2023-08-22T17:19:14.671Z,5.05
2023-08-22T17:21:42.004Z,5.78
2023-08-22T17:24:09.438Z,5.32
2023-08-22T17:26:36.723Z,5.70
2023-08-22T17:29:04.120Z,5.27
2023-08-22T17:31:31.655Z,5.65
2023-08-22T17:33:58.797Z,5.57
2023-08-22T17:36:26.165Z,5.22
2023-08-22T17:38:53.420Z,5.05
2023-08-22T17:41:20.680Z,5.20
2023-08-22T17:43:47.973Z,5.80
2023-08-22T17:46:17.269Z,6.80
2023-08-22T17:48:44.445Z,5.63
2023-08-22T17:51:12.226Z,6.00
2023-08-22T17:53:39.445Z,6.20
2023-08-22T17:56:06.893Z,5.85
2023-08-22T17:58:34.110Z,8.90
2023-08-22T18:01:02.369Z,7.50
2023-08-22T18:03:30.084Z,7.30
2023-08-22T18:05:58.308Z,6.33
2023-08-22T18:08:25.983Z,6.93
2023-08-22T18:10:53.758Z,7.00
2023-08-22T18:13:21.189Z,6.75
2023-08-22T18:16:07.286Z,6.25
2023-08-22T18:18:41.674Z,6.10
2023-08-22T18:21:10.250Z,5.95
2023-08-22T18:23:37.705Z,5.97
2023-08-22T18:26:05.873Z,6.30
2023-08-22T18:28:33.818Z,5.75
2023-08-22T18:31:02.752Z,6.10
2023-08-22T18:33:30.119Z,6.05
2023-08-22T18:35:57.414Z,6.05
2023-08-22T18:38:24.914Z,5.28
2023-08-22T18:40:55.501Z,5.30
2023-08-22T18:43:22.622Z,5.53
2023-08-22T18:45:49.868Z,5.82
2023-08-22T18:48:17.189Z,6.05
2023-08-22T18:50:45.676Z,6.10
2023-08-22T18:53:14.815Z,6.57
2023-08-22T18:55:42.003Z,7.43
2023-08-22T18:58:09.129Z,7.20
2023-08-22T19:00:36.298Z,7.95
2023-08-22T19:03:03.589Z,8.55
2023-08-22T19:05:30.815Z,8.63
2023-08-22T19:07:58.080Z,9.60
2023-08-22T19:10:25.373Z,10.90
2023-08-22T19:12:52.577Z,10.90
2023-08-22T19:15:19.786Z,10.73
2023-08-22T19:17:47.256Z,11.43
2023-08-22T19:20:14.632Z,11.70
2023-08-22T19:22:41.930Z,11.45
2023-08-22T19:25:09.538Z,11.40
2023-08-22T19:27:37.463Z,11.55
2023-08-22T19:30:05.210Z,11.90
2023-08-22T19:35:04.205Z,11.88
2023-08-22T19:37:31.314Z,12.30
2023-08-22T19:39:58.476Z,12.13
2023-08-22T19:42:25.658Z,12.98
2023-08-22T19:44:56.270Z,12.70
2023-08-22T19:47:23.947Z,12.57
2023-08-22T19:49:51.651Z,12.88
2023-08-22T19:52:18.932Z,13.13
2023-08-22T19:54:46.137Z,12.68
2023-08-22T19:57:13.225Z,12.70
2023-08-22T19:59:40.392Z,12.88
2023-08-22T20:02:08.598Z,12.40
2023-08-22T20:04:35.972Z,12.18
2023-08-22T20:07:03.514Z,12.57
2023-08-22T20:09:30.879Z,12.50
2023-08-22T20:11:58.025Z,12.32
2023-08-22T20:14:25.222Z,12.35
2023-08-22T20:16:53.050Z,12.18
2023-08-22T20:19:20.296Z,11.00
2023-08-22T20:21:47.707Z,11.17
2023-08-22T20:24:17.011Z,11.00
2023-08-22T20:26:44.273Z,10.90
2023-08-22T20:29:12.026Z,11.68
2023-08-22T20:31:39.684Z,10.70
2023-08-22T20:34:08.117Z,10.57
2023-08-22T20:36:35.484Z,9.10
2023-08-22T20:39:05.201Z,8.05
2023-08-22T20:41:32.609Z,8.15
2023-08-22T20:44:00.787Z,7.53
2023-08-22T20:46:27.969Z,7.90
2023-08-22T20:48:55.245Z,8.00
2023-08-22T20:51:22.488Z,7.40
2023-08-22T20:53:49.801Z,7.15
2023-08-22T20:56:17.083Z,7.15
2023-08-22T20:58:45.867Z,6.77
2023-08-22T21:01:15.067Z,7.10
2023-08-22T21:03:42.415Z,7.10
2023-08-22T21:06:10.360Z,7.00
2023-08-22T21:08:38.356Z,6.43
2023-08-22T21:11:06.770Z,6.57
2023-08-22T21:13:34.077Z,6.75
2023-08-22T21:16:01.355Z,6.82
2023-08-22T21:18:28.993Z,7.20
2023-08-22T21:20:56.207Z,6.38
2023-08-22T21:23:23.339Z,6.63
2023-08-22T21:25:50.549Z,6.90
2023-08-22T21:28:17.686Z,6.50
2023-08-22T21:30:50.286Z,6.07
2023-08-22T21:33:19.347Z,5.95
2023-08-22T21:35:46.832Z,6.77
2023-08-22T21:38:14.171Z,6.43
2023-08-22T21:40:47.722Z,6.53
2023-08-22T21:43:15.249Z,5.88
2023-08-22T21:45:42.540Z,6.20
2023-08-22T21:48:10.305Z,6.40
2023-08-22T21:50:37.574Z,5.90
2023-08-22T21:53:05.014Z,5.97
2023-08-22T21:55:32.129Z,5.90
2023-08-22T21:57:59.371Z,5.93
2023-08-22T22:00:26.904Z,6.13
2023-08-22T22:02:54.359Z,5.80
2023-08-22T22:05:21.513Z,5.90
2023-08-22T22:07:48.982Z,5.95
2023-08-22T22:10:16.451Z,5.82
2023-08-22T22:12:43.719Z,5.70
2023-08-22T22:15:11.029Z,6.43
2023-08-22T22:17:38.310Z,6.25
2023-08-22T22:20:05.946Z,5.57
2023-08-22T22:22:33.164Z,6.20
2023-08-22T22:25:01.048Z,6.00
2023-08-22T22:27:28.325Z,5.90
2023-08-22T22:29:55.521Z,6.25
2023-08-22T22:32:22.671Z,6.13
2023-08-22T22:34:49.747Z,6.28
2023-08-22T22:37:16.971Z,6.33
2023-08-22T22:39:44.236Z,5.82
2023-08-22T22:42:11.392Z,6.15
2023-08-22T22:44:38.629Z,6.30
2023-08-22T22:47:05.854Z,6.03
2023-08-22T22:49:33.092Z,5.47
2023-08-22T22:52:00.476Z,5.05
2023-08-22T22:54:27.956Z,5.28
2023-08-22T22:56:55.328Z,5.40
2023-08-22T22:59:22.486Z,5.07
2023-08-22T23:01:51.476Z,5.47
2023-08-22T23:04:18.923Z,4.80
2023-08-22T23:06:46.060Z,5.15
2023-08-22T23:09:13.256Z,4.72
2023-08-22T23:11:46.701Z,4.53
2023-08-22T23:14:22.192Z,4.97
2023-08-22T23:16:49.484Z,5.03
2023-08-22T23:19:16.725Z,4.65
2023-08-22T23:21:44.001Z,4.60
2023-08-22T23:24:11.133Z,4.40
2023-08-22T23:26:38.357Z,4.60
2023-08-22T23:29:05.770Z,4.50
2023-08-22T23:31:33.190Z,4.53
2023-08-22T23:34:00.378Z,4.00
2023-08-22T23:36:27.503Z,4.82
2023-08-22T23:38:54.763Z,4.03
2023-08-22T23:41:21.957Z,4.57
2023-08-22T23:43:49.179Z,5.18
2023-08-22T23:46:17.297Z,4.18
2023-08-22T23:48:44.553Z,4.20
2023-08-22T23:51:17.197Z,4.50
2023-08-22T23:53:45.246Z,4.80
2023-08-22T23:56:12.391Z,4.68
2023-08-22T23:58:39.564Z,4.55
